Time;durP1;ratioP1;P1;durP2;ratioP2;P2;SDS_P1;SDS_P2;PMS_P1;PMS_P2;Temp;Humidity;BMP_temperature;BMP_pressure;BME280_temperature;BME280_humidity;BME280_pressure;Samples;Min_cycle;Max_cycle;Signal;HPM_P1;HPM_P2
2023/05/21 00:01:20;;;;;;;31.58;11.95;;;12.20;99.90;;;;;;5008841;28;20050;-74
2023/05/21 00:03:48;;;;;;;26.52;11.15;;;12.20;99.90;;;;;;4990516;28;20073;-74
2023/05/21 00:06:16;;;;;;;30.73;11.73;;;12.10;99.90;;;;;;5011807;28;20057;-73
2023/05/21 00:08:43;;;;;;;24.48;11.05;;;12.10;99.90;;;;;;4989739;28;20073;-72
2023/05/21 00:11:11;;;;;;;31.55;10.75;;;12.10;99.90;;;;;;5008450;28;20073;-75
2023/05/21 00:13:39;;;;;;;31.60;11.55;;;12.00;99.90;;;;;;4979531;28;20101;-78
2023/05/21 00:16:07;;;;;;;24.85;10.45;;;12.00;99.90;;;;;;5013735;28;20044;-78
2023/05/21 00:18:38;;;;;;;24.15;11.10;;;11.90;99.90;;;;;;4994969;28;20530;-76
2023/05/21 00:21:06;;;;;;;18.83;11.02;;;11.90;99.90;;;;;;5012948;28;20081;-78
2023/05/21 00:23:35;;;;;;;29.52;10.77;;;11.80;99.90;;;;;;5012953;28;20045;-78
2023/05/21 00:26:03;;;;;;;31.98;11.00;;;11.80;99.90;;;;;;4979403;28;20265;-77
2023/05/21 00:28:30;;;;;;;29.70;11.63;;;11.80;99.90;;;;;;5013051;28;20042;-78
2023/05/21 00:30:58;;;;;;;24.45;10.68;;;11.70;99.90;;;;;;4995885;28;20081;-77
2023/05/21 00:33:27;;;;;;;28.77;11.05;;;11.70;99.90;;;;;;4979486;28;20053;-78
2023/05/21 00:35:56;;;;;;;26.00;10.35;;;11.70;99.90;;;;;;5016562;28;20061;-77
2023/05/21 00:38:26;;;;;;;25.52;11.43;;;11.70;99.90;;;;;;5011975;28;20069;-76
2023/05/21 00:40:54;;;;;;;25.20;10.52;;;11.60;99.90;;;;;;4980200;28;20053;-78
2023/05/21 00:43:25;;;;;;;26.13;10.27;;;11.60;99.90;;;;;;4997212;28;20058;-77
2023/05/21 00:45:55;;;;;;;29.27;12.02;;;11.60;99.90;;;;;;5009304;28;20084;-78
2023/05/21 00:48:23;;;;;;;25.50;11.40;;;11.60;99.90;;;;;;5015760;28;20045;-78
2023/05/21 00:50:51;;;;;;;25.30;10.48;;;11.50;99.90;;;;;;5001186;28;20073;-79
2023/05/21 00:53:20;;;;;;;30.58;11.20;;;11.50;99.90;;;;;;5026293;28;20073;-79
2023/05/21 00:55:48;;;;;;;22.38;10.82;;;11.50;99.90;;;;;;5030810;28;20060;-79
2023/05/21 00:58:16;;;;;;;27.90;10.35;;;11.50;99.90;;;;;;5027039;28;20042;-79
2023/05/21 01:00:44;;;;;;;25.65;10.15;;;11.50;99.90;;;;;;5025992;28;20042;-79
2023/05/21 01:03:15;;;;;;;29.83;10.57;;;11.50;99.90;;;;;;5003264;28;20050;-79
2023/05/21 01:05:43;;;;;;;27.60;11.18;;;11.50;99.90;;;;;;5012301;28;20042;-79
2023/05/21 01:08:12;;;;;;;26.80;10.57;;;11.50;99.90;;;;;;4982512;28;20042;-79
2023/05/21 01:10:41;;;;;;;24.23;10.30;;;11.50;99.90;;;;;;5024806;28;20074;-78
2023/05/21 01:13:08;;;;;;;24.10;10.38;;;11.60;99.90;;;;;;5009110;28;20101;-78
2023/05/21 01:15:37;;;;;;;23.60;9.30;;;11.60;99.90;;;;;;5008330;28;20058;-78
2023/05/21 01:18:06;;;;;;;23.13;9.15;;;11.60;99.90;;;;;;5003045;28;20046;-78
2023/05/21 01:20:33;;;;;;;22.52;8.45;;;11.60;99.90;;;;;;5017904;28;20037;-73
2023/05/21 01:23:03;;;;;;;22.25;8.20;;;11.60;99.90;;;;;;5010322;28;20049;-73
2023/05/21 01:25:30;;;;;;;21.58;7.55;;;11.60;99.90;;;;;;5011598;28;20065;-74
2023/05/21 01:27:58;;;;;;;21.55;8.60;;;11.60;99.90;;;;;;4992813;28;20064;-73
2023/05/21 01:30:26;;;;;;;21.95;8.23;;;11.60;99.90;;;;;;5021326;28;20132;-73
2023/05/21 01:33:00;;;;;;;33.65;9.27;;;11.60;99.90;;;;;;4992987;28;20053;-73
2023/05/21 01:35:32;;;;;;;20.38;8.45;;;11.50;99.90;;;;;;4995120;28;20054;-73
2023/05/21 01:38:13;;;;;;;29.75;9.20;;;11.50;99.90;;;;;;5010043;28;20073;-73
2023/05/21 01:40:47;;;;;;;18.20;8.32;;;11.40;99.90;;;;;;4978470;28;20042;-73
2023/05/21 01:43:15;;;;;;;;;;;11.40;99.90;;;;;;5009491;28;20115;-73
2023/05/21 01:45:44;;;;;;;22.98;8.95;;;11.30;99.90;;;;;;5010724;28;19964;-73
2023/05/21 01:48:13;;;;;;;22.33;9.30;;;11.30;99.90;;;;;;5020953;28;21310;-72
2023/05/21 01:50:42;;;;;;;26.25;10.57;;;11.20;99.90;;;;;;5019873;28;20057;-72
2023/05/21 01:53:12;;;;;;;23.13;9.65;;;11.20;99.90;;;;;;5004025;28;20112;-72
2023/05/21 01:55:40;;;;;;;21.70;10.07;;;11.10;99.90;;;;;;5007295;28;20053;-73
2023/05/21 01:58:08;;;;;;;24.13;9.57;;;11.10;99.90;;;;;;4991029;28;20061;-73
2023/05/21 02:00:38;;;;;;;23.48;9.80;;;11.10;99.90;;;;;;4993395;28;20077;-74
2023/05/21 02:03:06;;;;;;;31.17;10.65;;;11.10;99.90;;;;;;4993930;28;20042;-74
2023/05/21 02:05:34;;;;;;;30.10;9.90;;;11.00;99.90;;;;;;4978742;28;20091;-73
2023/05/21 02:08:02;;;;;;;27.05;10.50;;;11.00;99.90;;;;;;5013196;28;20163;-73
2023/05/21 02:10:31;;;;;;;24.20;9.73;;;10.90;99.90;;;;;;5005652;28;20050;-77
2023/05/21 02:12:59;;;;;;;22.63;9.45;;;10.90;99.90;;;;;;4996990;28;20049;-78
2023/05/21 02:15:26;;;;;;;23.92;11.23;;;10.90;99.90;;;;;;4984029;28;20604;-77
2023/05/21 02:17:54;;;;;;;30.85;10.75;;;10.90;99.90;;;;;;4997081;28;20050;-78
2023/05/21 02:20:22;;;;;;;28.15;11.23;;;10.90;99.90;;;;;;4995577;28;20462;-78
2023/05/21 02:22:50;;;;;;;27.08;10.43;;;10.90;99.90;;;;;;4997247;28;20058;-77
2023/05/21 02:25:19;;;;;;;24.52;9.65;;;10.90;99.90;;;;;;5005165;28;20054;-77
2023/05/21 02:27:52;;;;;;;29.73;11.25;;;10.90;99.90;;;;;;4999887;28;20069;-76
2023/05/21 02:30:20;;;;;;;24.92;10.23;;;11.00;99.90;;;;;;5001158;28;20054;-76
2023/05/21 02:32:49;;;;;;;26.50;10.38;;;10.90;99.90;;;;;;4986271;28;20045;-77
2023/05/21 02:35:17;;;;;;;26.77;10.27;;;10.90;99.90;;;;;;5001882;28;20064;-77
2023/05/21 02:37:44;;;;;;;30.35;10.95;;;10.90;99.90;;;;;;5018810;28;20522;-77
2023/05/21 02:40:13;;;;;;;22.75;10.27;;;11.00;99.90;;;;;;5007055;28;20060;-78
2023/05/21 02:42:41;;;;;;;28.27;11.70;;;11.00;99.90;;;;;;4994187;28;20073;-77
2023/05/21 02:45:13;;;;;;;30.08;10.77;;;11.00;99.90;;;;;;5008358;28;20042;-77
2023/05/21 02:47:43;;;;;;;29.52;11.15;;;11.00;99.90;;;;;;4999773;28;20053;-78
2023/05/21 02:50:11;;;;;;;29.15;11.60;;;11.00;99.90;;;;;;4992782;28;20144;-78
2023/05/21 02:52:45;;;;;;;29.52;10.50;;;11.10;99.90;;;;;;5005653;28;20099;-78
2023/05/21 02:55:12;;;;;;;32.60;11.63;;;11.10;99.90;;;;;;5005683;28;20510;-78
2023/05/21 02:57:40;;;;;;;29.58;12.05;;;11.20;99.90;;;;;;5011357;28;20050;-77
2023/05/21 03:00:10;;;;;;;31.60;11.45;;;11.20;99.90;;;;;;5020697;28;20072;-77
2023/05/21 03:02:41;;;;;;;27.77;11.83;;;11.20;99.90;;;;;;5007868;28;20046;-76
2023/05/21 03:05:09;;;;;;;22.95;11.77;;;11.30;99.90;;;;;;4992639;28;20046;-78
2023/05/21 03:07:37;;;;;;;32.55;11.93;;;11.30;99.90;;;;;;4976653;28;20050;-78
2023/05/21 03:10:07;;;;;;;26.10;10.15;;;11.40;99.90;;;;;;4984789;28;20049;-79
2023/05/21 03:12:35;;;;;;;28.15;11.68;;;11.40;99.90;;;;;;5008225;28;20049;-79
2023/05/21 03:15:02;;;;;;;26.80;11.35;;;11.50;99.90;;;;;;4977484;28;20077;-78
2023/05/21 03:17:35;;;;;;;22.63;11.18;;;11.50;99.90;;;;;;4979283;28;20111;-78
2023/05/21 03:20:04;;;;;;;25.83;10.95;;;11.50;99.90;;;;;;4998532;28;20053;-78
2023/05/21 03:22:32;;;;;;;28.23;11.35;;;11.60;99.90;;;;;;5010070;28;20130;-78
2023/05/21 03:25:01;;;;;;;20.67;12.45;;;11.60;99.90;;;;;;4992513;28;20422;-78
2023/05/21 03:27:35;;;;;;;31.90;13.23;;;11.60;99.90;;;;;;4995137;28;20050;-78
2023/05/21 03:30:08;;;;;;;21.42;11.02;;;11.70;99.90;;;;;;4993348;28;20499;-78
2023/05/21 03:32:48;;;;;;;34.83;12.30;;;11.90;99.90;;;;;;4976583;28;20545;-77
2023/05/21 03:35:17;;;;;;;29.80;12.50;;;11.90;99.90;;;;;;4975842;28;20096;-77
2023/05/21 03:37:45;;;;;;;37.70;12.00;;;11.90;99.90;;;;;;5009063;28;20077;-78
2023/05/21 03:40:13;;;;;;;27.58;12.60;;;12.00;99.90;;;;;;4994430;28;20077;-79
2023/05/21 03:42:42;;;;;;;29.27;12.77;;;12.00;99.90;;;;;;4977808;28;20166;-77
2023/05/21 03:45:11;;;;;;;28.83;13.48;;;12.00;99.90;;;;;;4965094;28;20042;-78
2023/05/21 03:48:05;;;;;;;31.33;15.48;;;12.10;99.90;;;;;;4973843;28;20465;-77
2023/05/21 03:50:35;;;;;;;41.28;20.73;;;12.20;99.90;;;;;;4995437;28;20141;-77
2023/05/21 03:53:03;;;;;;;32.42;16.77;;;12.20;99.90;;;;;;5010648;28;20062;-78
2023/05/21 03:55:30;;;;;;;29.77;17.90;;;12.30;99.90;;;;;;5002237;28;20069;-78
2023/05/21 03:57:58;;;;;;;30.42;16.05;;;12.40;99.90;;;;;;5011843;28;20062;-78
2023/05/21 04:00:25;;;;;;;37.70;18.67;;;12.60;99.90;;;;;;4995718;28;20091;-78
2023/05/21 04:02:53;;;;;;;29.17;17.73;;;12.60;99.90;;;;;;5000910;28;20053;-78
2023/05/21 04:05:20;;;;;;;27.00;16.85;;;12.70;99.90;;;;;;4995152;28;20529;-78
2023/05/21 04:07:49;;;;;;;35.95;18.15;;;12.80;99.90;;;;;;4978703;28;20054;-73
2023/05/21 04:10:17;;;;;;;27.33;16.48;;;12.80;99.90;;;;;;5004279;28;20077;-73
2023/05/21 04:12:45;;;;;;;35.38;16.77;;;12.90;99.90;;;;;;4994928;28;20050;-74
2023/05/21 04:15:17;;;;;;;28.10;17.65;;;13.00;99.90;;;;;;4981739;28;20054;-74
2023/05/21 04:17:45;;;;;;;26.55;17.08;;;13.10;99.90;;;;;;5010784;28;20096;-73
2023/05/21 04:20:15;;;;;;;27.17;16.92;;;13.20;99.90;;;;;;5008865;28;20057;-73
2023/05/21 04:22:44;;;;;;;35.25;17.30;;;13.20;99.90;;;;;;4994592;28;20086;-72
2023/05/21 04:25:14;;;;;;;28.58;17.10;;;13.40;99.90;;;;;;4989727;28;20057;-74
2023/05/21 04:27:46;;;;;;;23.85;16.58;;;13.50;99.90;;;;;;4994425;28;20076;-73
2023/05/21 04:30:14;;;;;;;29.63;16.08;;;13.60;99.90;;;;;;5010919;28;20061;-73
2023/05/21 04:32:46;;;;;;;31.15;16.23;;;13.70;99.90;;;;;;4996015;28;20081;-73
2023/05/21 04:35:17;;;;;;;24.75;15.38;;;13.80;99.90;;;;;;4995729;28;20469;-73
2023/05/21 04:37:45;;;;;;;28.30;14.32;;;13.90;99.90;;;;;;4996015;28;20564;-73
2023/05/21 04:40:16;;;;;;;27.48;13.95;;;14.10;99.90;;;;;;4991942;28;20104;-73
2023/05/21 04:42:45;;;;;;;34.40;16.05;;;14.10;99.90;;;;;;4985592;28;20109;-74
2023/05/21 04:45:13;;;;;;;33.58;18.50;;;14.30;99.90;;;;;;5003112;28;20045;-73
2023/05/21 04:47:44;;;;;;;17.77;11.43;;;14.30;99.90;;;;;;4979511;28;20069;-73
2023/05/21 04:50:12;;;;;;;16.52;12.23;;;14.50;99.90;;;;;;4998480;28;20463;-73
2023/05/21 04:52:40;;;;;;;17.45;10.20;;;14.60;99.90;;;;;;5002720;28;20058;-74
2023/05/21 04:55:09;;;;;;;18.73;9.65;;;14.70;99.90;;;;;;4990375;28;20082;-74
2023/05/21 04:57:38;;;;;;;15.02;9.35;;;14.70;99.90;;;;;;4976220;28;20149;-79
2023/05/21 05:00:08;;;;;;;23.55;10.45;;;14.80;99.90;;;;;;5013262;28;20074;-77
2023/05/21 05:02:41;;;;;;;18.73;10.70;;;14.90;99.90;;;;;;5012908;28;20133;-78
2023/05/21 05:05:09;;;;;;;16.27;9.35;;;15.00;99.90;;;;;;4990628;28;20074;-73
2023/05/21 05:07:37;;;;;;;11.07;7.80;;;15.10;99.90;;;;;;4992762;28;20057;-73
2023/05/21 05:10:06;;;;;;;15.77;8.52;;;15.20;99.90;;;;;;5011648;28;20042;-73
2023/05/21 05:12:34;;;;;;;18.52;8.10;;;15.40;99.90;;;;;;4994142;28;20042;-73
2023/05/21 05:15:03;;;;;;;13.90;8.40;;;15.50;99.90;;;;;;5008221;28;20103;-73
2023/05/21 05:17:33;;;;;;;14.88;7.95;;;15.70;99.90;;;;;;5017024;28;20140;-74
2023/05/21 05:20:01;;;;;;;15.18;9.05;;;16.00;99.90;;;;;;4999234;28;20061;-72
2023/05/21 05:22:29;;;;;;;13.88;7.97;;;16.20;99.90;;;;;;4988562;28;20047;-73
2023/05/21 05:24:57;;;;;;;15.63;8.23;;;16.40;99.90;;;;;;4994457;28;20506;-73
2023/05/21 05:27:25;;;;;;;12.60;8.30;;;16.70;99.90;;;;;;4985470;28;20050;-71
2023/05/21 05:29:53;;;;;;;9.48;6.45;;;17.10;99.90;;;;;;4968062;28;20069;-71
2023/05/21 05:32:22;;;;;;;12.60;7.88;;;17.60;99.90;;;;;;5001724;28;20042;-72
2023/05/21 05:34:50;;;;;;;12.20;7.40;;;18.20;99.90;;;;;;5011890;28;20058;-73
2023/05/21 05:37:17;;;;;;;10.27;7.40;;;18.80;99.90;;;;;;4982206;28;20050;-72
2023/05/21 05:39:48;;;;;;;14.55;8.82;;;19.30;99.90;;;;;;4987136;28;20051;-72
2023/05/21 05:42:15;;;;;;;12.23;6.97;;;19.90;99.90;;;;;;4976461;28;20085;-70
2023/05/21 05:44:43;;;;;;;10.18;6.75;;;20.30;99.90;;;;;;4975349;28;20137;-72
2023/05/21 05:47:10;;;;;;;11.63;6.60;;;20.80;97.30;;;;;;4990710;28;20116;-72
2023/05/21 05:49:40;;;;;;;7.38;6.22;;;21.30;94.10;;;;;;4993127;28;20050;-72
2023/05/21 05:52:08;;;;;;;15.02;6.35;;;21.80;90.80;;;;;;5012345;28;20376;-72
2023/05/21 05:54:36;;;;;;;7.75;5.57;;;22.30;84.80;;;;;;4992080;28;20140;-73
2023/05/21 05:57:04;;;;;;;10.07;4.97;;;22.60;80.60;;;;;;4975333;28;20141;-72
2023/05/21 05:59:34;;;;;;;10.45;5.80;;;23.10;77.50;;;;;;4978091;28;20045;-72
2023/05/21 06:02:03;;;;;;;8.52;5.20;;;23.30;76.60;;;;;;5012516;28;20049;-72
2023/05/21 06:04:30;;;;;;;6.88;4.82;;;23.50;73.90;;;;;;5013093;28;20509;-72
2023/05/21 06:06:59;;;;;;;8.75;4.60;;;23.70;70.60;;;;;;4996818;28;20049;-72
2023/05/21 06:09:27;;;;;;;7.45;5.15;;;24.00;68.90;;;;;;5000781;28;20053;-71
2023/05/21 06:11:55;;;;;;;7.40;5.50;;;24.20;69.60;;;;;;4993678;28;20046;-72
2023/05/21 06:14:23;;;;;;;9.23;5.38;;;24.40;68.80;;;;;;5011238;28;20096;-71
2023/05/21 06:16:50;;;;;;;8.30;5.10;;;24.60;65.50;;;;;;4993560;28;20056;-72
2023/05/21 06:19:18;;;;;;;9.80;7.55;;;24.80;64.40;;;;;;5023625;28;20070;-71
2023/05/21 06:21:45;;;;;;;6.75;3.80;;;25.10;63.30;;;;;;4996772;28;20041;-71
2023/05/21 06:24:14;;;;;;;6.40;4.47;;;25.40;60.20;;;;;;5013364;28;20059;-71
2023/05/21 06:26:42;;;;;;;4.60;4.10;;;25.90;58.80;;;;;;5020944;28;20529;-72
2023/05/21 06:29:09;;;;;;;7.05;4.30;;;26.20;58.20;;;;;;5012928;28;20508;-71
2023/05/21 06:31:37;;;;;;;5.25;3.42;;;26.50;56.60;;;;;;4995686;28;20699;-72
2023/05/21 06:34:05;;;;;;;8.43;4.88;;;26.70;56.20;;;;;;4993412;28;20053;-72
2023/05/21 06:36:36;;;;;;;4.72;3.50;;;27.00;54.90;;;;;;5019561;28;20069;-73
2023/05/21 06:39:04;;;;;;;9.55;4.97;;;27.20;55.10;;;;;;5030646;28;20137;-73
2023/05/21 06:41:33;;;;;;;6.03;4.88;;;27.20;55.10;;;;;;4989746;28;20058;-73
2023/05/21 06:44:05;;;;;;;7.97;4.00;;;27.20;56.20;;;;;;5006667;28;20054;-73
2023/05/21 06:47:05;;;;;;;8.63;3.97;;;27.20;54.80;;;;;;4988378;28;20046;-73
2023/05/21 06:49:32;;;;;;;6.93;5.43;;;27.30;54.70;;;;;;5004124;28;20541;-75
2023/05/21 06:52:00;;;;;;;6.30;3.10;;;27.40;53.60;;;;;;4974879;28;20046;-75
2023/05/21 06:54:27;;;;;;;3.50;3.00;;;27.60;53.40;;;;;;5002666;28;20049;-74
2023/05/21 06:56:58;;;;;;;4.90;1.80;;;27.70;52.90;;;;;;4992283;28;20084;-76
2023/05/21 06:59:25;;;;;;;6.60;2.35;;;27.80;50.70;;;;;;4986246;28;20042;-76
2023/05/21 07:01:55;;;;;;;2.33;2.05;;;27.80;50.80;;;;;;4961987;28;20050;-76
2023/05/21 07:04:23;;;;;;;6.50;4.75;;;28.00;50.10;;;;;;5011025;28;20057;-76
2023/05/21 07:06:52;;;;;;;3.58;2.63;;;28.10;52.00;;;;;;4988945;28;20129;-76
2023/05/21 07:09:20;;;;;;;4.53;2.47;;;28.30;51.80;;;;;;4996076;28;20153;-76
2023/05/21 07:11:49;;;;;;;4.70;2.33;;;28.60;51.70;;;;;;4977229;28;20049;-75
2023/05/21 07:14:19;;;;;;;5.70;2.90;;;28.90;51.00;;;;;;4991009;28;20506;-75
2023/05/21 07:16:47;;;;;;;3.60;2.95;;;29.00;51.30;;;;;;5011905;28;20054;-75
2023/05/21 07:19:18;;;;;;;4.97;3.10;;;29.10;50.30;;;;;;5011510;28;20069;-75
2023/05/21 07:21:46;;;;;;;7.00;3.63;;;29.10;50.80;;;;;;5000482;28;20041;-76
2023/05/21 07:24:14;;;;;;;5.25;3.38;;;29.30;49.90;;;;;;5032100;28;20582;-76
2023/05/21 07:26:43;;;;;;;5.07;3.58;;;29.50;50.30;;;;;;5015617;28;20053;-76
2023/05/21 07:29:12;;;;;;;7.93;2.65;;;29.70;49.80;;;;;;5015301;28;20131;-73
2023/05/21 07:31:41;;;;;;;3.92;2.58;;;30.00;50.60;;;;;;4998155;28;20149;-75
2023/05/21 07:34:09;;;;;;;3.92;2.92;;;30.30;48.20;;;;;;5007402;28;20057;-75
2023/05/21 07:36:36;;;;;;;5.45;4.53;;;30.60;47.10;;;;;;4989387;28;20632;-74
2023/05/21 07:39:05;;;;;;;5.35;3.60;;;30.80;48.00;;;;;;4979475;28;20049;-75
2023/05/21 07:41:33;;;;;;;4.40;3.10;;;31.20;47.50;;;;;;5012944;28;20046;-75
2023/05/21 07:44:04;;;;;;;5.75;3.60;;;31.00;45.20;;;;;;4994393;28;20053;-73
2023/05/21 07:46:35;;;;;;;3.13;2.83;;;30.00;46.30;;;;;;4985997;28;20053;-74
2023/05/21 07:49:05;;;;;;;4.10;2.50;;;29.70;47.20;;;;;;4998390;28;20047;-76
2023/05/21 07:51:33;;;;;;;3.25;2.20;;;28.80;46.80;;;;;;5001783;28;20605;-73
2023/05/21 07:54:00;;;;;;;3.42;2.72;;;27.90;48.20;;;;;;5001189;28;20060;-76
2023/05/21 07:56:33;;;;;;;5.32;2.40;;;27.10;50.10;;;;;;4975876;28;20085;-76
2023/05/21 07:59:01;;;;;;;4.75;2.60;;;26.90;50.90;;;;;;5005023;28;20073;-76
2023/05/21 08:01:29;;;;;;;5.50;3.53;;;27.50;51.50;;;;;;4988593;28;20490;-76
2023/05/21 08:03:59;;;;;;;4.95;2.72;;;28.60;50.90;;;;;;4970680;28;20050;-76
2023/05/21 08:06:37;;;;;;;5.10;2.60;;;28.50;48.60;;;;;;4993650;28;20053;-77
2023/05/21 08:09:07;;;;;;;4.75;3.15;;;28.20;50.50;;;;;;5004758;28;20057;-75
2023/05/21 08:11:35;;;;;;;3.53;2.90;;;28.50;50.40;;;;;;4992551;28;20046;-73
2023/05/21 08:14:03;;;;;;;3.90;3.20;;;28.00;50.30;;;;;;5007645;28;20061;-73
2023/05/21 08:16:31;;;;;;;6.53;3.10;;;27.30;50.30;;;;;;4983233;28;20050;-75
2023/05/21 08:18:59;;;;;;;6.85;3.50;;;26.90;51.50;;;;;;4988546;28;20069;-74
2023/05/21 08:21:28;;;;;;;6.80;5.38;;;26.80;52.50;;;;;;4990797;28;20045;-77
2023/05/21 08:23:58;;;;;;;5.80;3.10;;;26.40;53.40;;;;;;5010800;28;20138;-77
2023/05/21 08:26:26;;;;;;;4.55;2.97;;;26.00;53.00;;;;;;5001187;28;20050;-77
2023/05/21 08:28:53;;;;;;;6.75;5.30;;;25.50;52.70;;;;;;5001545;28;20507;-77
2023/05/21 08:31:21;;;;;;;12.40;9.00;;;25.20;53.00;;;;;;4983892;28;20122;-76
2023/05/21 08:33:52;;;;;;;6.68;4.20;;;25.50;55.30;;;;;;5000413;28;20045;-76
2023/05/21 08:36:27;;;;;;;3.10;2.80;;;27.30;53.40;;;;;;4998425;28;20050;-76
2023/05/21 08:39:00;;;;;;;2.40;2.20;;;28.60;50.80;;;;;;4984527;28;20144;-75
2023/05/21 08:41:37;;;;;;;4.38;2.55;;;28.30;49.00;;;;;;4992781;28;20065;-75
2023/05/21 08:44:12;;;;;;;4.70;2.20;;;27.60;50.30;;;;;;4978994;28;20096;-74
2023/05/21 08:46:43;;;;;;;4.28;2.70;;;26.70;51.00;;;;;;5010638;28;20476;-75
2023/05/21 08:49:13;;;;;;;3.20;2.45;;;26.10;52.20;;;;;;4987570;28;20548;-75
2023/05/21 08:51:43;;;;;;;4.13;2.70;;;25.60;53.60;;;;;;5003470;28;20399;-75
2023/05/21 08:54:12;;;;;;;2.45;2.13;;;25.30;53.60;;;;;;4983255;28;20057;-75
2023/05/21 08:56:45;;;;;;;3.67;2.22;;;25.90;54.70;;;;;;5002011;28;20423;-76
2023/05/21 08:59:15;;;;;;;4.25;2.47;;;26.70;51.70;;;;;;4990927;28;20054;-76
2023/05/21 09:01:45;;;;;;;7.57;2.67;;;26.50;52.10;;;;;;5012785;28;20049;-76
2023/05/21 09:04:22;;;;;;;6.90;3.00;;;26.20;52.30;;;;;;5015663;28;20120;-75
2023/05/21 09:06:56;;;;;;;3.08;2.28;;;25.80;52.70;;;;;;4992855;28;20127;-75
2023/05/21 09:09:52;;;;;;;30.83;4.28;;;25.50;54.60;;;;;;5009705;28;20049;-76
2023/05/21 09:12:21;;;;;;;5.97;2.50;;;25.60;54.80;;;;;;5013880;28;20054;-76
2023/05/21 09:14:49;;;;;;;7.35;2.65;;;25.90;53.50;;;;;;5010039;28;20077;-75
2023/05/21 09:17:20;;;;;;;5.32;2.85;;;25.80;52.50;;;;;;5001540;28;20096;-77
2023/05/21 09:20:11;;;;;;;3.50;3.08;;;25.70;54.90;;;;;;5015827;28;20081;-77
2023/05/21 09:22:45;;;;;;;2.67;2.47;;;25.50;54.10;;;;;;4980179;28;20049;-77
2023/05/21 09:25:15;;;;;;;2.90;2.40;;;25.20;53.70;;;;;;4992591;28;20054;-76
2023/05/21 09:27:42;;;;;;;3.78;2.03;;;24.90;54.10;;;;;;4976045;28;20061;-76
2023/05/21 09:30:12;;;;;;;3.60;2.92;;;24.70;54.80;;;;;;4985117;28;20549;-76
2023/05/21 09:32:40;;;;;;;5.88;2.30;;;24.60;55.50;;;;;;4999399;28;20041;-76
2023/05/21 09:35:11;;;;;;;3.80;2.25;;;24.50;55.10;;;;;;4983084;28;20038;-76
2023/05/21 09:37:39;;;;;;;2.80;2.45;;;25.30;55.30;;;;;;4982571;28;20050;-76
2023/05/21 09:40:16;;;;;;;4.82;3.13;;;27.40;54.10;;;;;;4968945;28;20041;-76
2023/05/21 09:42:47;;;;;;;2.47;2.25;;;29.50;51.10;;;;;;5000814;28;20084;-76
2023/05/21 09:45:19;;;;;;;3.40;2.03;;;31.10;48.00;;;;;;4990165;28;20042;-76
2023/05/21 09:47:48;;;;;;;;;;;32.30;45.60;;;;;;4983682;28;20139;-76
2023/05/21 09:50:20;;;;;;;6.75;1.92;;;33.30;44.40;;;;;;5006968;28;20127;-75
2023/05/21 09:52:51;;;;;;;4.60;1.90;;;33.90;42.90;;;;;;5009412;28;20115;-74
2023/05/21 09:55:24;;;;;;;4.40;1.88;;;34.40;42.10;;;;;;4982015;28;20053;-74
2023/05/21 09:57:53;;;;;;;3.30;2.33;;;34.80;41.50;;;;;;5009857;28;20085;-75
2023/05/21 10:00:22;;;;;;;2.63;1.83;;;35.10;41.30;;;;;;5022731;28;20051;-74
2023/05/21 10:02:55;;;;;;;4.25;1.88;;;35.40;41.70;;;;;;5016686;28;20058;-75
2023/05/21 10:05:27;;;;;;;4.82;2.00;;;35.40;40.70;;;;;;4992243;28;20075;-75
2023/05/21 10:08:00;;;;;;;3.42;2.10;;;35.60;41.40;;;;;;5029179;28;20049;-75
2023/05/21 10:10:34;;;;;;;3.08;1.88;;;35.80;40.10;;;;;;5006500;28;20508;-74
2023/05/21 10:13:06;;;;;;;1.75;1.65;;;35.90;39.30;;;;;;5002383;28;20045;-74
2023/05/21 10:15:40;;;;;;;2.13;2.03;;;35.40;38.60;;;;;;4992552;28;20086;-76
2023/05/21 10:18:10;;;;;;;1.83;1.73;;;35.30;40.00;;;;;;5000636;28;20053;-77
2023/05/21 10:20:38;;;;;;;3.85;2.17;;;35.70;38.70;;;;;;5003116;28;20399;-74
2023/05/21 10:23:07;;;;;;;8.48;2.28;;;36.00;39.00;;;;;;4993056;28;20038;-76
2023/05/21 10:25:37;;;;;;;5.80;4.15;;;36.40;38.20;;;;;;4986978;28;20041;-75
2023/05/21 10:28:06;;;;;;;3.15;2.50;;;36.60;37.50;;;;;;4992668;28;20057;-76
2023/05/21 10:30:36;;;;;;;4.43;2.88;;;36.60;38.40;;;;;;5001003;28;20043;-76
2023/05/21 10:33:05;;;;;;;8.40;2.90;;;36.70;38.40;;;;;;4975919;28;20897;-75
2023/05/21 10:35:34;;;;;;;4.55;2.40;;;36.90;36.90;;;;;;5005799;28;20048;-73
2023/05/21 10:38:05;;;;;;;4.22;2.22;;;37.00;36.90;;;;;;4993206;28;20054;-76
2023/05/21 10:40:35;;;;;;;;;;;37.30;37.10;;;;;;4995658;28;20082;-72
2023/05/21 10:43:30;;;;;;;5.35;2.00;;;37.40;35.80;;;;;;4993421;28;19925;-76
2023/05/21 10:46:29;;;;;;;3.53;2.33;;;37.20;36.60;;;;;;4982518;28;20133;-76
2023/05/21 10:49:15;;;;;;;2.67;2.15;;;37.00;36.30;;;;;;4999169;28;20061;-75
2023/05/21 10:51:55;;;;;;;7.65;2.60;;;36.90;36.10;;;;;;4981524;28;20045;-75
2023/05/21 10:54:42;;;;;;;2.33;2.10;;;36.90;36.50;;;;;;4964930;28;20096;-75
2023/05/21 10:57:45;;;;;;;4.35;2.00;;;37.30;36.10;;;;;;4998644;28;20050;-75
2023/05/21 11:00:16;;;;;;;2.58;2.13;;;37.50;35.40;;;;;;4968143;28;20042;-76
2023/05/21 11:02:45;;;;;;;2.25;1.70;;;37.50;35.70;;;;;;5001779;28;20053;-75
2023/05/21 11:05:13;;;;;;;2.17;2.00;;;37.40;35.30;;;;;;5000183;28;20096;-75
2023/05/21 11:08:25;;;;;;;5.95;1.75;;;37.40;35.30;;;;;;5000856;28;20188;-74
2023/05/21 11:10:56;;;;;;;2.25;2.00;;;37.50;35.70;;;;;;4993706;28;20545;-75
2023/05/21 11:13:27;;;;;;;5.63;2.30;;;37.60;36.30;;;;;;5005572;28;20042;-75
2023/05/21 11:16:07;;;;;;;1.90;1.80;;;37.80;35.40;;;;;;5008537;28;20064;-75
2023/05/21 11:19:02;;;;;;;4.18;1.92;;;38.10;35.20;;;;;;4990372;28;20054;-75
2023/05/21 11:21:31;;;;;;;1.73;1.63;;;38.40;35.00;;;;;;5018016;28;20060;-74
2023/05/21 11:24:09;;;;;;;2.10;1.80;;;38.50;35.10;;;;;;4976237;28;20050;-75
2023/05/21 11:27:03;;;;;;;3.33;1.80;;;38.70;36.20;;;;;;5008025;28;20049;-73
2023/05/21 11:29:46;;;;;;;2.38;1.80;;;38.50;34.20;;;;;;5013876;28;20096;-73
2023/05/21 11:32:16;;;;;;;1.90;1.80;;;38.50;34.30;;;;;;5028359;28;20079;-72
2023/05/21 11:34:46;;;;;;;4.70;2.30;;;38.50;34.20;;;;;;5011449;28;20081;-73
2023/05/21 11:37:36;;;;;;;3.03;2.05;;;38.60;34.40;;;;;;5006814;28;20061;-72
2023/05/21 11:40:25;;;;;;;5.07;2.03;;;38.90;34.20;;;;;;4991453;28;20043;-76
2023/05/21 11:42:55;;;;;;;2.53;1.88;;;39.10;34.10;;;;;;4988692;28;20097;-75
2023/05/21 11:45:29;;;;;;;4.88;3.25;;;39.20;34.80;;;;;;4999905;28;20042;-76
2023/05/21 11:47:57;;;;;;;6.70;2.05;;;39.20;34.60;;;;;;4987711;28;20590;-73
2023/05/21 11:50:26;;;;;;;2.10;1.80;;;39.10;34.20;;;;;;5006163;28;20050;-76
2023/05/21 11:52:54;;;;;;;4.70;2.05;;;39.20;33.60;;;;;;4994447;28;20064;-76
2023/05/21 11:55:23;;;;;;;3.15;1.80;;;39.40;34.20;;;;;;5008110;28;20048;-76
2023/05/21 11:57:54;;;;;;;4.93;1.90;;;39.40;33.60;;;;;;5008285;28;20149;-75
2023/05/21 12:00:23;;;;;;;4.55;2.00;;;39.50;33.90;;;;;;5008523;28;20198;-76
2023/05/21 12:02:54;;;;;;;5.68;2.55;;;39.50;33.20;;;;;;5011985;28;20734;-75
2023/05/21 12:05:22;;;;;;;4.53;1.90;;;39.50;34.60;;;;;;5001919;28;20054;-75
2023/05/21 12:07:49;;;;;;;2.65;2.28;;;39.60;33.10;;;;;;4994609;28;20465;-76
2023/05/21 12:10:21;;;;;;;2.95;2.10;;;39.50;33.10;;;;;;4989992;28;20046;-77
2023/05/21 12:12:49;;;;;;;5.15;2.05;;;39.70;32.90;;;;;;5021101;28;20404;-75
2023/05/21 12:15:18;;;;;;;3.92;1.70;;;39.70;32.90;;;;;;5011602;28;20506;-76
2023/05/21 12:17:51;;;;;;;2.35;1.80;;;39.50;32.60;;;;;;5011438;28;20611;-77
2023/05/21 12:20:19;;;;;;;2.65;1.80;;;39.50;33.10;;;;;;5015642;28;20053;-75
2023/05/21 12:22:48;;;;;;;2.20;1.95;;;39.50;32.70;;;;;;5002421;28;20070;-77
2023/05/21 12:25:20;;;;;;;4.93;2.00;;;39.50;32.50;;;;;;4994591;28;20056;-76
2023/05/21 12:27:51;;;;;;;2.95;1.55;;;39.60;32.80;;;;;;5010353;28;20041;-76
2023/05/21 12:30:19;;;;;;;4.15;2.00;;;39.60;32.20;;;;;;5010709;28;20606;-75
2023/05/21 12:32:49;;;;;;;2.25;1.92;;;39.60;32.80;;;;;;4994019;28;20053;-76
2023/05/21 12:35:23;;;;;;;5.70;1.95;;;39.60;32.60;;;;;;5009142;28;20070;-76
2023/05/21 12:37:51;;;;;;;6.82;2.00;;;39.60;33.00;;;;;;5011476;28;20049;-76
2023/05/21 12:40:19;;;;;;;7.65;2.47;;;39.70;32.90;;;;;;5010261;28;20100;-77
2023/05/21 12:42:48;;;;;;;5.07;2.30;;;39.70;32.60;;;;;;5014818;28;20051;-75
2023/05/21 12:45:17;;;;;;;4.32;2.20;;;39.70;33.50;;;;;;5009059;28;20065;-77
2023/05/21 12:47:54;;;;;;;3.42;2.75;;;39.60;33.00;;;;;;5003325;28;20162;-75
2023/05/21 12:50:22;;;;;;;4.15;2.35;;;39.40;32.70;;;;;;5011782;28;20061;-73
2023/05/21 12:52:50;;;;;;;6.35;1.98;;;39.40;32.90;;;;;;5007486;28;20042;-72
2023/05/21 12:55:17;;;;;;;2.67;1.90;;;39.60;32.50;;;;;;4994037;28;20046;-73
2023/05/21 12:57:45;;;;;;;4.70;2.10;;;39.70;32.80;;;;;;5010222;28;20129;-75